sensor_id;sensor_type;location;lat;lon;timestamp;P1;durP1;ratioP1;P2;durP2;ratioP2
57313;SDS011;53202;50.976;18.216;2023-11-19T00:00:24;109.90;;;63.50;;
57313;SDS011;53202;50.976;18.216;2023-11-19T00:01:25;100.20;;;58.00;;
57313;SDS011;53202;50.976;18.216;2023-11-19T00:02:26;112.10;;;63.20;;
57313;SDS011;53202;50.976;18.216;2023-11-19T00:03:27;99.40;;;60.10;;
57313;SDS011;53202;50.976;18.216;2023-11-19T00:04:28;94.10;;;57.70;;
57313;SDS011;53202;50.976;18.216;2023-11-19T00:05:30;105.70;;;60.80;;
57313;SDS011;53202;50.976;18.216;2023-11-19T00:06:31;110.00;;;61.30;;
57313;SDS011;53202;50.976;18.216;2023-11-19T00:07:32;93.90;;;55.90;;
57313;SDS011;53202;50.976;18.216;2023-11-19T00:08:33;87.30;;;54.30;;
57313;SDS011;53202;50.976;18.216;2023-11-19T00:09:34;86.00;;;52.30;;
57313;SDS011;53202;50.976;18.216;2023-11-19T00:10:37;93.30;;;55.00;;
57313;SDS011;53202;50.976;18.216;2023-11-19T00:11:38;82.80;;;52.40;;
57313;SDS011;53202;50.976;18.216;2023-11-19T00:12:41;83.70;;;51.50;;
57313;SDS011;53202;50.976;18.216;2023-11-19T00:13:44;87.40;;;50.70;;
57313;SDS011;53202;50.976;18.216;2023-11-19T00:14:45;87.70;;;52.10;;
57313;SDS011;53202;50.976;18.216;2023-11-19T00:15:46;84.50;;;49.80;;
57313;SDS011;53202;50.976;18.216;2023-11-19T00:16:48;80.10;;;50.30;;
57313;SDS011;53202;50.976;18.216;2023-11-19T00:17:51;90.60;;;50.10;;
57313;SDS011;53202;50.976;18.216;2023-11-19T00:18:52;91.60;;;52.70;;
57313;SDS011;53202;50.976;18.216;2023-11-19T00:19:53;84.50;;;51.40;;
57313;SDS011;53202;50.976;18.216;2023-11-19T00:20:54;81.80;;;50.80;;
57313;SDS011;53202;50.976;18.216;2023-11-19T00:21:55;83.80;;;50.80;;
57313;SDS011;53202;50.976;18.216;2023-11-19T00:22:56;75.50;;;49.40;;
57313;SDS011;53202;50.976;18.216;2023-11-19T00:23:57;84.30;;;51.30;;
57313;SDS011;53202;50.976;18.216;2023-11-19T00:24:59;76.50;;;50.60;;
57313;SDS011;53202;50.976;18.216;2023-11-19T00:26:00;86.50;;;51.50;;
57313;SDS011;53202;50.976;18.216;2023-11-19T00:27:02;78.60;;;49.80;;
57313;SDS011;53202;50.976;18.216;2023-11-19T00:28:03;81.60;;;51.30;;
57313;SDS011;53202;50.976;18.216;2023-11-19T00:29:04;80.00;;;50.90;;
57313;SDS011;53202;50.976;18.216;2023-11-19T00:30:06;77.00;;;48.90;;
57313;SDS011;53202;50.976;18.216;2023-11-19T00:31:09;74.40;;;47.90;;
57313;SDS011;53202;50.976;18.216;2023-11-19T00:32:10;77.10;;;48.70;;
57313;SDS011;53202;50.976;18.216;2023-11-19T00:33:12;88.80;;;50.40;;
57313;SDS011;53202;50.976;18.216;2023-11-19T00:34:13;84.20;;;49.50;;
57313;SDS011;53202;50.976;18.216;2023-11-19T00:35:14;82.00;;;51.40;;
57313;SDS011;53202;50.976;18.216;2023-11-19T00:36:15;82.60;;;50.90;;
57313;SDS011;53202;50.976;18.216;2023-11-19T00:37:16;83.60;;;50.70;;
57313;SDS011;53202;50.976;18.216;2023-11-19T00:38:17;81.60;;;50.50;;
57313;SDS011;53202;50.976;18.216;2023-11-19T00:39:18;82.90;;;52.10;;
57313;SDS011;53202;50.976;18.216;2023-11-19T00:40:21;77.80;;;50.20;;
57313;SDS011;53202;50.976;18.216;2023-11-19T00:41:23;78.20;;;49.50;;
57313;SDS011;53202;50.976;18.216;2023-11-19T00:42:25;85.60;;;50.80;;
57313;SDS011;53202;50.976;18.216;2023-11-19T00:43:27;83.60;;;50.90;;
57313;SDS011;53202;50.976;18.216;2023-11-19T00:44:28;73.70;;;48.90;;
57313;SDS011;53202;50.976;18.216;2023-11-19T00:45:29;75.90;;;49.50;;
57313;SDS011;53202;50.976;18.216;2023-11-19T00:46:30;79.40;;;49.20;;
57313;SDS011;53202;50.976;18.216;2023-11-19T00:47:33;75.50;;;49.70;;
57313;SDS011;53202;50.976;18.216;2023-11-19T00:48:34;82.50;;;46.90;;
57313;SDS011;53202;50.976;18.216;2023-11-19T00:49:35;78.00;;;50.00;;
57313;SDS011;53202;50.976;18.216;2023-11-19T00:50:36;73.70;;;48.50;;
57313;SDS011;53202;50.976;18.216;2023-11-19T00:51:37;76.20;;;46.20;;
57313;SDS011;53202;50.976;18.216;2023-11-19T00:52:38;72.30;;;45.60;;
57313;SDS011;53202;50.976;18.216;2023-11-19T00:53:39;73.30;;;47.70;;
57313;SDS011;53202;50.976;18.216;2023-11-19T00:54:40;71.50;;;47.10;;
57313;SDS011;53202;50.976;18.216;2023-11-19T00:55:41;85.10;;;52.50;;
57313;SDS011;53202;50.976;18.216;2023-11-19T00:56:42;87.40;;;52.90;;
57313;SDS011;53202;50.976;18.216;2023-11-19T00:57:44;86.60;;;49.10;;
57313;SDS011;53202;50.976;18.216;2023-11-19T00:58:46;80.50;;;49.60;;
57313;SDS011;53202;50.976;18.216;2023-11-19T00:59:48;79.90;;;51.50;;
57313;SDS011;53202;50.976;18.216;2023-11-19T01:00:49;85.60;;;52.00;;
57313;SDS011;53202;50.976;18.216;2023-11-19T01:01:50;87.20;;;53.40;;
57313;SDS011;53202;50.976;18.216;2023-11-19T01:02:52;94.10;;;53.50;;
57313;SDS011;53202;50.976;18.216;2023-11-19T01:03:53;91.70;;;51.90;;
57313;SDS011;53202;50.976;18.216;2023-11-19T01:04:54;81.40;;;51.50;;
57313;SDS011;53202;50.976;18.216;2023-11-19T01:05:56;80.00;;;50.00;;
57313;SDS011;53202;50.976;18.216;2023-11-19T01:06:58;81.60;;;48.80;;
57313;SDS011;53202;50.976;18.216;2023-11-19T01:07:59;78.90;;;47.70;;
57313;SDS011;53202;50.976;18.216;2023-11-19T01:09:01;78.70;;;48.50;;
57313;SDS011;53202;50.976;18.216;2023-11-19T01:10:02;79.70;;;45.70;;
57313;SDS011;53202;50.976;18.216;2023-11-19T01:11:04;68.30;;;44.30;;
57313;SDS011;53202;50.976;18.216;2023-11-19T01:12:05;74.00;;;47.90;;
57313;SDS011;53202;50.976;18.216;2023-11-19T01:13:06;66.50;;;44.00;;
57313;SDS011;53202;50.976;18.216;2023-11-19T01:14:07;77.10;;;45.70;;
57313;SDS011;53202;50.976;18.216;2023-11-19T01:15:08;62.90;;;43.00;;
57313;SDS011;53202;50.976;18.216;2023-11-19T01:16:10;69.80;;;42.80;;
57313;SDS011;53202;50.976;18.216;2023-11-19T01:17:11;68.10;;;41.70;;
57313;SDS011;53202;50.976;18.216;2023-11-19T01:18:12;64.70;;;42.60;;
57313;SDS011;53202;50.976;18.216;2023-11-19T01:19:13;64.70;;;41.30;;
57313;SDS011;53202;50.976;18.216;2023-11-19T01:20:14;65.00;;;43.60;;
57313;SDS011;53202;50.976;18.216;2023-11-19T01:21:15;63.80;;;40.50;;
57313;SDS011;53202;50.976;18.216;2023-11-19T01:22:16;58.70;;;40.60;;
57313;SDS011;53202;50.976;18.216;2023-11-19T01:23:17;61.80;;;40.10;;
57313;SDS011;53202;50.976;18.216;2023-11-19T01:24:18;61.00;;;40.50;;
57313;SDS011;53202;50.976;18.216;2023-11-19T01:25:20;66.10;;;40.90;;
57313;SDS011;53202;50.976;18.216;2023-11-19T01:26:20;58.50;;;41.00;;
57313;SDS011;53202;50.976;18.216;2023-11-19T01:27:21;60.20;;;39.50;;
57313;SDS011;53202;50.976;18.216;2023-11-19T01:28:24;55.80;;;38.70;;
57313;SDS011;53202;50.976;18.216;2023-11-19T01:29:25;57.50;;;38.60;;
57313;SDS011;53202;50.976;18.216;2023-11-19T01:30:26;72.20;;;40.30;;
57313;SDS011;53202;50.976;18.216;2023-11-19T01:31:27;61.00;;;38.50;;
57313;SDS011;53202;50.976;18.216;2023-11-19T01:32:29;67.40;;;40.10;;
57313;SDS011;53202;50.976;18.216;2023-11-19T01:33:30;64.30;;;42.10;;
57313;SDS011;53202;50.976;18.216;2023-11-19T01:34:31;56.40;;;37.70;;
57313;SDS011;53202;50.976;18.216;2023-11-19T01:35:32;60.70;;;39.40;;
57313;SDS011;53202;50.976;18.216;2023-11-19T01:36:33;62.40;;;40.80;;
57313;SDS011;53202;50.976;18.216;2023-11-19T01:37:34;60.40;;;39.20;;
57313;SDS011;53202;50.976;18.216;2023-11-19T01:38:36;58.90;;;38.70;;
57313;SDS011;53202;50.976;18.216;2023-11-19T01:39:37;54.50;;;38.90;;
57313;SDS011;53202;50.976;18.216;2023-11-19T01:40:38;61.30;;;40.60;;
57313;SDS011;53202;50.976;18.216;2023-11-19T01:41:39;57.40;;;37.40;;
57313;SDS011;53202;50.976;18.216;2023-11-19T01:42:40;63.80;;;38.20;;
57313;SDS011;53202;50.976;18.216;2023-11-19T01:43:41;59.10;;;38.70;;
57313;SDS011;53202;50.976;18.216;2023-11-19T01:44:53;53.90;;;35.90;;
57313;SDS011;53202;50.976;18.216;2023-11-19T01:45:57;56.20;;;38.70;;
57313;SDS011;53202;50.976;18.216;2023-11-19T01:46:58;56.10;;;37.60;;
57313;SDS011;53202;50.976;18.216;2023-11-19T01:48:00;59.10;;;38.00;;
57313;SDS011;53202;50.976;18.216;2023-11-19T01:49:04;59.00;;;37.00;;
57313;SDS011;53202;50.976;18.216;2023-11-19T01:50:06;58.20;;;39.60;;
57313;SDS011;53202;50.976;18.216;2023-11-19T01:51:08;61.00;;;38.10;;
57313;SDS011;53202;50.976;18.216;2023-11-19T01:52:09;63.00;;;38.80;;
57313;SDS011;53202;50.976;18.216;2023-11-19T01:53:11;60.20;;;37.00;;
57313;SDS011;53202;50.976;18.216;2023-11-19T01:54:12;59.70;;;38.60;;
57313;SDS011;53202;50.976;18.216;2023-11-19T01:55:13;54.80;;;37.20;;
57313;SDS011;53202;50.976;18.216;2023-11-19T01:56:14;58.30;;;36.70;;
57313;SDS011;53202;50.976;18.216;2023-11-19T01:57:16;52.90;;;38.10;;
57313;SDS011;53202;50.976;18.216;2023-11-19T01:58:17;54.10;;;36.70;;
57313;SDS011;53202;50.976;18.216;2023-11-19T01:59:19;53.70;;;37.50;;
57313;SDS011;53202;50.976;18.216;2023-11-19T02:00:26;55.10;;;36.30;;
57313;SDS011;53202;50.976;18.216;2023-11-19T02:01:27;61.10;;;37.80;;
57313;SDS011;53202;50.976;18.216;2023-11-19T02:02:30;57.10;;;38.30;;
57313;SDS011;53202;50.976;18.216;2023-11-19T02:03:31;61.20;;;36.10;;
57313;SDS011;53202;50.976;18.216;2023-11-19T02:04:33;63.50;;;37.70;;
57313;SDS011;53202;50.976;18.216;2023-11-19T02:05:35;55.60;;;34.40;;
57313;SDS011;53202;50.976;18.216;2023-11-19T02:06:37;64.10;;;37.70;;
57313;SDS011;53202;50.976;18.216;2023-11-19T02:07:41;55.00;;;34.90;;
57313;SDS011;53202;50.976;18.216;2023-11-19T02:08:42;60.70;;;37.60;;
57313;SDS011;53202;50.976;18.216;2023-11-19T02:09:44;58.10;;;35.80;;
57313;SDS011;53202;50.976;18.216;2023-11-19T02:10:45;59.70;;;38.70;;
57313;SDS011;53202;50.976;18.216;2023-11-19T02:11:46;60.80;;;35.70;;
57313;SDS011;53202;50.976;18.216;2023-11-19T02:12:51;61.70;;;36.10;;
57313;SDS011;53202;50.976;18.216;2023-11-19T02:13:52;54.90;;;34.00;;
57313;SDS011;53202;50.976;18.216;2023-11-19T02:14:53;52.80;;;35.80;;
57313;SDS011;53202;50.976;18.216;2023-11-19T02:15:55;50.80;;;35.00;;
57313;SDS011;53202;50.976;18.216;2023-11-19T02:16:56;58.70;;;34.90;;
57313;SDS011;53202;50.976;18.216;2023-11-19T02:17:57;54.90;;;33.70;;
57313;SDS011;53202;50.976;18.216;2023-11-19T02:19:19;49.60;;;33.60;;
57313;SDS011;53202;50.976;18.216;2023-11-19T02:20:20;51.90;;;33.90;;
57313;SDS011;53202;50.976;18.216;2023-11-19T02:21:21;51.50;;;33.80;;
57313;SDS011;53202;50.976;18.216;2023-11-19T02:22:22;49.40;;;32.70;;
57313;SDS011;53202;50.976;18.216;2023-11-19T02:23:23;53.10;;;34.60;;
57313;SDS011;53202;50.976;18.216;2023-11-19T02:24:26;58.70;;;36.10;;
57313;SDS011;53202;50.976;18.216;2023-11-19T02:25:30;53.50;;;34.10;;
57313;SDS011;53202;50.976;18.216;2023-11-19T02:27:57;49.90;;;35.20;;
57313;SDS011;53202;50.976;18.216;2023-11-19T02:29:00;49.70;;;32.40;;
57313;SDS011;53202;50.976;18.216;2023-11-19T02:30:00;55.60;;;37.70;;
57313;SDS011;53202;50.976;18.216;2023-11-19T02:31:03;53.70;;;37.50;;
57313;SDS011;53202;50.976;18.216;2023-11-19T02:32:06;46.00;;;33.20;;
57313;SDS011;53202;50.976;18.216;2023-11-19T02:33:09;52.60;;;35.80;;
57313;SDS011;53202;50.976;18.216;2023-11-19T02:34:10;59.60;;;34.60;;
57313;SDS011;53202;50.976;18.216;2023-11-19T02:35:12;53.70;;;34.00;;
57313;SDS011;53202;50.976;18.216;2023-11-19T02:36:13;50.80;;;32.80;;
57313;SDS011;53202;50.976;18.216;2023-11-19T02:37:14;62.90;;;34.70;;
57313;SDS011;53202;50.976;18.216;2023-11-19T02:38:15;53.80;;;36.10;;
57313;SDS011;53202;50.976;18.216;2023-11-19T02:39:16;56.00;;;34.10;;
57313;SDS011;53202;50.976;18.216;2023-11-19T02:40:21;51.80;;;35.60;;
57313;SDS011;53202;50.976;18.216;2023-11-19T02:41:24;58.20;;;37.00;;
57313;SDS011;53202;50.976;18.216;2023-11-19T02:42:25;50.80;;;35.10;;
57313;SDS011;53202;50.976;18.216;2023-11-19T02:43:26;58.40;;;38.00;;
57313;SDS011;53202;50.976;18.216;2023-11-19T02:44:27;53.40;;;36.20;;
57313;SDS011;53202;50.976;18.216;2023-11-19T02:45:30;49.10;;;35.30;;
57313;SDS011;53202;50.976;18.216;2023-11-19T02:46:31;52.60;;;35.20;;
57313;SDS011;53202;50.976;18.216;2023-11-19T02:47:33;59.70;;;38.00;;
57313;SDS011;53202;50.976;18.216;2023-11-19T02:48:34;58.30;;;35.40;;
57313;SDS011;53202;50.976;18.216;2023-11-19T02:49:36;53.60;;;36.20;;
57313;SDS011;53202;50.976;18.216;2023-11-19T02:50:37;51.80;;;35.50;;
57313;SDS011;53202;50.976;18.216;2023-11-19T02:51:38;60.60;;;36.20;;
57313;SDS011;53202;50.976;18.216;2023-11-19T02:52:40;52.20;;;33.90;;
57313;SDS011;53202;50.976;18.216;2023-11-19T02:53:42;50.10;;;35.40;;
57313;SDS011;53202;50.976;18.216;2023-11-19T02:54:44;58.10;;;35.40;;
57313;SDS011;53202;50.976;18.216;2023-11-19T02:55:45;58.10;;;36.10;;
57313;SDS011;53202;50.976;18.216;2023-11-19T02:56:50;60.10;;;37.80;;
57313;SDS011;53202;50.976;18.216;2023-11-19T02:57:56;56.60;;;36.40;;
57313;SDS011;53202;50.976;18.216;2023-11-19T02:58:59;53.30;;;34.10;;
57313;SDS011;53202;50.976;18.216;2023-11-19T03:00:08;63.50;;;40.20;;
57313;SDS011;53202;50.976;18.216;2023-11-19T03:01:12;53.40;;;34.90;;
57313;SDS011;53202;50.976;18.216;2023-11-19T03:02:23;61.10;;;38.90;;
57313;SDS011;53202;50.976;18.216;2023-11-19T03:03:34;59.00;;;38.40;;
57313;SDS011;53202;50.976;18.216;2023-11-19T03:04:38;62.60;;;39.30;;
57313;SDS011;53202;50.976;18.216;2023-11-19T03:05:40;57.00;;;36.90;;
57313;SDS011;53202;50.976;18.216;2023-11-19T03:06:41;59.60;;;39.30;;
57313;SDS011;53202;50.976;18.216;2023-11-19T03:07:44;59.10;;;38.10;;
57313;SDS011;53202;50.976;18.216;2023-11-19T03:08:45;61.20;;;39.00;;
57313;SDS011;53202;50.976;18.216;2023-11-19T03:09:47;61.50;;;39.60;;
57313;SDS011;53202;50.976;18.216;2023-11-19T03:10:50;57.30;;;38.80;;
57313;SDS011;53202;50.976;18.216;2023-11-19T03:11:51;63.80;;;39.30;;
57313;SDS011;53202;50.976;18.216;2023-11-19T03:12:52;57.90;;;39.00;;
57313;SDS011;53202;50.976;18.216;2023-11-19T03:13:55;66.20;;;40.60;;
57313;SDS011;53202;50.976;18.216;2023-11-19T03:14:56;68.70;;;41.00;;
57313;SDS011;53202;50.976;18.216;2023-11-19T03:15:57;62.10;;;39.80;;
57313;SDS011;53202;50.976;18.216;2023-11-19T03:16:58;61.40;;;38.70;;
57313;SDS011;53202;50.976;18.216;2023-11-19T03:17:59;61.40;;;37.40;;
57313;SDS011;53202;50.976;18.216;2023-11-19T03:19:00;59.80;;;40.00;;
57313;SDS011;53202;50.976;18.216;2023-11-19T03:20:01;69.90;;;42.80;;
57313;SDS011;53202;50.976;18.216;2023-11-19T03:21:02;57.50;;;38.70;;
57313;SDS011;53202;50.976;18.216;2023-11-19T03:22:03;67.90;;;43.20;;
57313;SDS011;53202;50.976;18.216;2023-11-19T03:23:04;60.00;;;39.10;;
57313;SDS011;53202;50.976;18.216;2023-11-19T03:24:06;58.80;;;39.70;;
57313;SDS011;53202;50.976;18.216;2023-11-19T03:25:08;66.30;;;39.90;;
57313;SDS011;53202;50.976;18.216;2023-11-19T03:26:10;58.90;;;39.10;;
57313;SDS011;53202;50.976;18.216;2023-11-19T03:27:11;65.20;;;41.30;;
57313;SDS011;53202;50.976;18.216;2023-11-19T03:28:12;63.20;;;39.70;;
57313;SDS011;53202;50.976;18.216;2023-11-19T03:29:13;62.10;;;39.90;;
57313;SDS011;53202;50.976;18.216;2023-11-19T03:30:14;62.20;;;40.90;;
57313;SDS011;53202;50.976;18.216;2023-11-19T03:31:18;59.90;;;40.30;;
57313;SDS011;53202;50.976;18.216;2023-11-19T03:32:19;60.90;;;39.70;;
57313;SDS011;53202;50.976;18.216;2023-11-19T03:33:20;58.50;;;38.20;;
57313;SDS011;53202;50.976;18.216;2023-11-19T03:34:21;56.40;;;37.90;;
57313;SDS011;53202;50.976;18.216;2023-11-19T03:35:23;61.80;;;38.60;;
57313;SDS011;53202;50.976;18.216;2023-11-19T03:36:25;59.30;;;40.00;;
57313;SDS011;53202;50.976;18.216;2023-11-19T03:37:26;66.10;;;41.10;;
57313;SDS011;53202;50.976;18.216;2023-11-19T03:38:27;64.30;;;40.40;;
57313;SDS011;53202;50.976;18.216;2023-11-19T03:39:28;62.30;;;40.50;;
57313;SDS011;53202;50.976;18.216;2023-11-19T03:40:29;63.40;;;38.50;;
57313;SDS011;53202;50.976;18.216;2023-11-19T03:41:30;70.00;;;40.60;;
57313;SDS011;53202;50.976;18.216;2023-11-19T03:42:31;62.00;;;38.10;;
57313;SDS011;53202;50.976;18.216;2023-11-19T03:43:32;56.70;;;37.60;;
57313;SDS011;53202;50.976;18.216;2023-11-19T03:44:33;65.70;;;39.40;;
57313;SDS011;53202;50.976;18.216;2023-11-19T03:45:35;61.60;;;38.40;;
57313;SDS011;53202;50.976;18.216;2023-11-19T03:46:36;58.00;;;39.80;;
57313;SDS011;53202;50.976;18.216;2023-11-19T03:47:37;59.90;;;38.50;;
57313;SDS011;53202;50.976;18.216;2023-11-19T03:48:39;63.10;;;39.30;;
57313;SDS011;53202;50.976;18.216;2023-11-19T03:49:40;61.70;;;37.70;;
57313;SDS011;53202;50.976;18.216;2023-11-19T03:50:41;62.40;;;39.70;;
57313;SDS011;53202;50.976;18.216;2023-11-19T03:51:42;69.10;;;41.70;;
57313;SDS011;53202;50.976;18.216;2023-11-19T03:52:43;66.00;;;40.80;;
57313;SDS011;53202;50.976;18.216;2023-11-19T03:53:45;62.00;;;39.90;;
57313;SDS011;53202;50.976;18.216;2023-11-19T03:54:46;60.60;;;41.00;;
57313;SDS011;53202;50.976;18.216;2023-11-19T03:55:47;58.90;;;39.30;;
57313;SDS011;53202;50.976;18.216;2023-11-19T03:56:48;60.30;;;38.50;;
57313;SDS011;53202;50.976;18.216;2023-11-19T03:57:49;55.20;;;35.90;;
57313;SDS011;53202;50.976;18.216;2023-11-19T03:58:50;60.40;;;36.20;;
57313;SDS011;53202;50.976;18.216;2023-11-19T03:59:52;57.50;;;38.10;;
57313;SDS011;53202;50.976;18.216;2023-11-19T04:00:53;58.20;;;37.80;;
57313;SDS011;53202;50.976;18.216;2023-11-19T04:01:54;57.00;;;38.40;;
57313;SDS011;53202;50.976;18.216;2023-11-19T04:02:56;49.30;;;35.60;;
57313;SDS011;53202;50.976;18.216;2023-11-19T04:03:58;57.00;;;37.60;;
57313;SDS011;53202;50.976;18.216;2023-11-19T04:04:59;60.00;;;37.30;;
57313;SDS011;53202;50.976;18.216;2023-11-19T04:06:00;54.80;;;36.80;;
57313;SDS011;53202;50.976;18.216;2023-11-19T04:07:01;58.70;;;39.10;;
57313;SDS011;53202;50.976;18.216;2023-11-19T04:08:04;55.00;;;36.20;;
57313;SDS011;53202;50.976;18.216;2023-11-19T04:09:05;58.70;;;37.60;;
57313;SDS011;53202;50.976;18.216;2023-11-19T04:10:06;59.00;;;36.20;;
57313;SDS011;53202;50.976;18.216;2023-11-19T04:11:08;55.60;;;37.30;;
57313;SDS011;53202;50.976;18.216;2023-11-19T04:12:09;60.90;;;40.40;;
57313;SDS011;53202;50.976;18.216;2023-11-19T04:13:10;58.50;;;38.10;;
57313;SDS011;53202;50.976;18.216;2023-11-19T04:14:12;57.70;;;36.80;;
57313;SDS011;53202;50.976;18.216;2023-11-19T04:15:14;58.40;;;36.00;;
57313;SDS011;53202;50.976;18.216;2023-11-19T04:16:16;52.50;;;35.20;;
57313;SDS011;53202;50.976;18.216;2023-11-19T04:17:17;50.00;;;35.40;;
57313;SDS011;53202;50.976;18.216;2023-11-19T04:18:18;57.20;;;37.70;;
57313;SDS011;53202;50.976;18.216;2023-11-19T04:19:19;49.60;;;34.60;;
57313;SDS011;53202;50.976;18.216;2023-11-19T04:20:20;52.00;;;35.80;;
57313;SDS011;53202;50.976;18.216;2023-11-19T04:21:21;54.00;;;37.40;;
57313;SDS011;53202;50.976;18.216;2023-11-19T04:22:23;54.90;;;36.40;;
57313;SDS011;53202;50.976;18.216;2023-11-19T04:23:24;54.90;;;37.30;;
57313;SDS011;53202;50.976;18.216;2023-11-19T04:24:25;53.00;;;35.90;;
57313;SDS011;53202;50.976;18.216;2023-11-19T04:25:27;54.20;;;33.90;;
57313;SDS011;53202;50.976;18.216;2023-11-19T04:26:28;55.60;;;36.40;;
57313;SDS011;53202;50.976;18.216;2023-11-19T04:27:29;56.30;;;36.80;;
57313;SDS011;53202;50.976;18.216;2023-11-19T04:28:30;60.90;;;38.40;;
57313;SDS011;53202;50.976;18.216;2023-11-19T04:29:31;54.30;;;35.00;;
57313;SDS011;53202;50.976;18.216;2023-11-19T04:30:32;57.50;;;38.50;;
57313;SDS011;53202;50.976;18.216;2023-11-19T04:31:33;57.50;;;35.90;;
57313;SDS011;53202;50.976;18.216;2023-11-19T04:32:34;55.90;;;37.80;;
57313;SDS011;53202;50.976;18.216;2023-11-19T04:33:35;51.90;;;37.50;;
57313;SDS011;53202;50.976;18.216;2023-11-19T04:34:36;55.50;;;37.90;;
57313;SDS011;53202;50.976;18.216;2023-11-19T04:35:37;52.80;;;36.20;;
57313;SDS011;53202;50.976;18.216;2023-11-19T04:36:38;52.10;;;35.60;;
57313;SDS011;53202;50.976;18.216;2023-11-19T04:37:41;56.90;;;36.10;;
57313;SDS011;53202;50.976;18.216;2023-11-19T04:38:42;52.80;;;36.30;;
57313;SDS011;53202;50.976;18.216;2023-11-19T04:39:44;53.10;;;36.00;;
57313;SDS011;53202;50.976;18.216;2023-11-19T04:40:46;59.10;;;36.00;;
57313;SDS011;53202;50.976;18.216;2023-11-19T04:41:48;59.00;;;37.20;;
57313;SDS011;53202;50.976;18.216;2023-11-19T04:42:50;53.00;;;35.40;;
57313;SDS011;53202;50.976;18.216;2023-11-19T04:43:51;49.90;;;37.20;;
57313;SDS011;53202;50.976;18.216;2023-11-19T04:44:52;56.00;;;36.60;;
57313;SDS011;53202;50.976;18.216;2023-11-19T04:45:53;53.60;;;35.10;;
57313;SDS011;53202;50.976;18.216;2023-11-19T04:46:54;58.50;;;38.70;;
57313;SDS011;53202;50.976;18.216;2023-11-19T04:47:55;52.60;;;36.20;;
57313;SDS011;53202;50.976;18.216;2023-11-19T04:48:56;52.20;;;35.50;;
57313;SDS011;53202;50.976;18.216;2023-11-19T04:49:57;57.80;;;38.30;;
57313;SDS011;53202;50.976;18.216;2023-11-19T04:50:58;51.40;;;35.80;;
57313;SDS011;53202;50.976;18.216;2023-11-19T04:51:59;61.80;;;39.50;;
57313;SDS011;53202;50.976;18.216;2023-11-19T04:53:00;56.90;;;38.40;;
57313;SDS011;53202;50.976;18.216;2023-11-19T04:54:01;56.40;;;37.20;;
57313;SDS011;53202;50.976;18.216;2023-11-19T04:55:02;50.50;;;35.70;;
57313;SDS011;53202;50.976;18.216;2023-11-19T04:56:08;65.30;;;39.70;;
57313;SDS011;53202;50.976;18.216;2023-11-19T04:57:09;53.50;;;35.80;;
57313;SDS011;53202;50.976;18.216;2023-11-19T04:58:12;54.00;;;37.50;;
57313;SDS011;53202;50.976;18.216;2023-11-19T04:59:13;62.80;;;40.20;;
57313;SDS011;53202;50.976;18.216;2023-11-19T05:00:14;52.00;;;36.30;;
57313;SDS011;53202;50.976;18.216;2023-11-19T05:01:15;59.10;;;39.30;;
57313;SDS011;53202;50.976;18.216;2023-11-19T05:02:17;74.70;;;38.30;;
57313;SDS011;53202;50.976;18.216;2023-11-19T05:03:18;55.90;;;37.80;;
57313;SDS011;53202;50.976;18.216;2023-11-19T05:04:19;60.30;;;37.00;;
57313;SDS011;53202;50.976;18.216;2023-11-19T05:05:20;58.70;;;37.90;;
57313;SDS011;53202;50.976;18.216;2023-11-19T05:06:21;59.60;;;38.00;;
57313;SDS011;53202;50.976;18.216;2023-11-19T05:07:22;57.90;;;37.70;;
57313;SDS011;53202;50.976;18.216;2023-11-19T05:08:23;63.40;;;39.80;;
57313;SDS011;53202;50.976;18.216;2023-11-19T05:09:24;59.80;;;38.40;;
57313;SDS011;53202;50.976;18.216;2023-11-19T05:10:25;64.20;;;39.80;;
57313;SDS011;53202;50.976;18.216;2023-11-19T05:11:26;66.00;;;41.70;;
57313;SDS011;53202;50.976;18.216;2023-11-19T05:12:28;62.90;;;42.20;;
57313;SDS011;53202;50.976;18.216;2023-11-19T05:13:29;62.30;;;41.50;;
57313;SDS011;53202;50.976;18.216;2023-11-19T05:14:30;66.50;;;41.50;;
57313;SDS011;53202;50.976;18.216;2023-11-19T05:15:31;65.60;;;42.30;;
57313;SDS011;53202;50.976;18.216;2023-11-19T05:16:32;58.30;;;42.20;;
57313;SDS011;53202;50.976;18.216;2023-11-19T05:17:33;70.70;;;43.30;;
57313;SDS011;53202;50.976;18.216;2023-11-19T05:18:34;71.80;;;45.00;;
57313;SDS011;53202;50.976;18.216;2023-11-19T05:19:35;63.60;;;41.70;;
57313;SDS011;53202;50.976;18.216;2023-11-19T05:20:36;65.40;;;42.30;;
57313;SDS011;53202;50.976;18.216;2023-11-19T05:21:37;69.40;;;40.90;;
57313;SDS011;53202;50.976;18.216;2023-11-19T05:22:40;61.40;;;38.10;;
57313;SDS011;53202;50.976;18.216;2023-11-19T05:23:41;55.20;;;36.20;;
57313;SDS011;53202;50.976;18.216;2023-11-19T05:24:42;59.70;;;40.10;;
57313;SDS011;53202;50.976;18.216;2023-11-19T05:25:43;64.00;;;43.00;;
57313;SDS011;53202;50.976;18.216;2023-11-19T05:26:46;61.30;;;40.10;;
57313;SDS011;53202;50.976;18.216;2023-11-19T05:27:47;61.90;;;40.80;;
57313;SDS011;53202;50.976;18.216;2023-11-19T05:28:48;59.00;;;38.30;;
57313;SDS011;53202;50.976;18.216;2023-11-19T05:29:50;62.20;;;41.00;;
57313;SDS011;53202;50.976;18.216;2023-11-19T05:30:51;60.60;;;40.10;;
57313;SDS011;53202;50.976;18.216;2023-11-19T05:31:52;56.50;;;37.50;;
57313;SDS011;53202;50.976;18.216;2023-11-19T05:32:55;67.10;;;43.30;;
57313;SDS011;53202;50.976;18.216;2023-11-19T05:33:56;59.00;;;40.20;;
57313;SDS011;53202;50.976;18.216;2023-11-19T05:34:57;61.50;;;40.50;;
57313;SDS011;53202;50.976;18.216;2023-11-19T05:35:58;63.90;;;42.30;;
57313;SDS011;53202;50.976;18.216;2023-11-19T05:36:59;62.90;;;38.50;;
57313;SDS011;53202;50.976;18.216;2023-11-19T05:38:00;66.60;;;42.20;;
57313;SDS011;53202;50.976;18.216;2023-11-19T05:39:03;59.70;;;39.80;;
57313;SDS011;53202;50.976;18.216;2023-11-19T05:40:05;70.40;;;40.50;;
57313;SDS011;53202;50.976;18.216;2023-11-19T05:41:14;65.50;;;43.30;;
57313;SDS011;53202;50.976;18.216;2023-11-19T05:42:15;69.80;;;41.60;;
57313;SDS011;53202;50.976;18.216;2023-11-19T05:43:16;58.90;;;41.10;;
57313;SDS011;53202;50.976;18.216;2023-11-19T05:44:17;65.50;;;41.50;;
57313;SDS011;53202;50.976;18.216;2023-11-19T05:45:19;73.10;;;42.40;;
57313;SDS011;53202;50.976;18.216;2023-11-19T05:46:20;67.80;;;43.30;;
57313;SDS011;53202;50.976;18.216;2023-11-19T05:47:21;76.60;;;42.40;;
57313;SDS011;53202;50.976;18.216;2023-11-19T05:48:24;66.80;;;43.50;;
57313;SDS011;53202;50.976;18.216;2023-11-19T05:49:26;69.90;;;42.10;;
57313;SDS011;53202;50.976;18.216;2023-11-19T05:50:27;61.10;;;40.40;;
57313;SDS011;53202;50.976;18.216;2023-11-19T05:51:28;65.50;;;42.00;;
57313;SDS011;53202;50.976;18.216;2023-11-19T05:52:29;64.30;;;41.60;;
57313;SDS011;53202;50.976;18.216;2023-11-19T05:53:33;72.80;;;41.50;;
57313;SDS011;53202;50.976;18.216;2023-11-19T05:54:34;69.00;;;43.50;;
57313;SDS011;53202;50.976;18.216;2023-11-19T05:55:38;67.30;;;41.10;;
57313;SDS011;53202;50.976;18.216;2023-11-19T05:56:47;62.40;;;40.70;;